Fairmount City, Pennsylvania
Current Conditions -  °F | °C
As of 4:53 PM on Wednesday 17 Dec 2014 (Local Time) from KDUJ Reporting Station
Overcast Overcast  
Wind Chill: -7°   Ceiling: 1600
Heat Index: -1°   Visibility: 10mi
Dew Point: -4°   Wind: 14mph
Humidity: 82%   Direction: 250°WSW
Pressure: 29.98"   Gusts: NA
Location:  41.01°N, 79.32°W
Report Text: KDUJ 172153Z AUTO 25012KT 10SM BKN016 OVC023 M01/M04 A2998 RMK AO2 SLP166 T10111039
Loading
Personal Weather Stations






























Interactive Weather Map New forecast layout! Learn more

10-Day Weather Forecast

Advertisements
Track Severe Weather on mobile